createdAt,value
2018-07-01T00:01:49.821Z,16.50
2018-07-01T00:04:18.019Z,16.60
2018-07-01T00:06:46.284Z,16.50
2018-07-01T00:09:15.257Z,16.60
2018-07-01T00:11:43.475Z,16.50
2018-07-01T00:14:11.679Z,16.50
2018-07-01T00:16:39.939Z,16.50
2018-07-01T00:19:08.182Z,16.40
2018-07-01T00:21:37.629Z,16.20
2018-07-01T00:24:05.875Z,16.20
2018-07-01T00:26:34.123Z,16.20
2018-07-01T00:29:02.367Z,16.20
2018-07-01T00:31:30.576Z,16.20
2018-07-01T00:33:58.824Z,16.10
2018-07-01T00:36:27.040Z,16.10
2018-07-01T00:38:56.067Z,16.10
2018-07-01T00:41:24.320Z,16.00
2018-07-01T00:43:53.333Z,16.00
2018-07-01T00:46:21.586Z,16.00
2018-07-01T00:48:50.552Z,16.00
2018-07-01T00:51:18.827Z,15.90
2018-07-01T00:53:47.022Z,15.90
2018-07-01T00:56:15.282Z,15.90
2018-07-01T00:58:43.500Z,15.80
2018-07-01T01:01:11.754Z,15.80
2018-07-01T01:03:40.007Z,15.80
2018-07-01T01:06:08.232Z,15.80
2018-07-01T01:08:36.452Z,15.80
2018-07-01T01:11:05.486Z,15.70
2018-07-01T01:13:34.439Z,15.70
2018-07-01T01:16:02.714Z,15.60
2018-07-01T01:18:30.912Z,15.70
2018-07-01T01:20:59.174Z,15.60
2018-07-01T01:23:27.373Z,15.70
2018-07-01T01:25:55.604Z,15.60
2018-07-01T01:28:23.909Z,15.60
2018-07-01T01:30:52.178Z,15.60
2018-07-01T01:33:20.415Z,15.60
2018-07-01T01:35:48.648Z,15.50
2018-07-01T01:38:16.897Z,15.50
2018-07-01T01:40:45.118Z,15.30
2018-07-01T01:43:14.131Z,15.20
2018-07-01T01:45:43.107Z,15.10
2018-07-01T01:48:12.127Z,15.00
2018-07-01T01:50:40.400Z,14.90
2018-07-01T01:53:08.637Z,14.80
2018-07-01T01:55:36.853Z,14.70
2018-07-01T01:58:05.078Z,14.60
2018-07-01T02:00:33.333Z,14.40
2018-07-01T02:03:01.597Z,14.30
2018-07-01T02:05:29.779Z,14.20
2018-07-01T02:07:58.042Z,14.20
2018-07-01T02:10:26.275Z,14.10
2018-07-01T02:12:54.535Z,14.00
2018-07-01T02:15:22.785Z,13.90
2018-07-01T02:17:51.005Z,13.90
2018-07-01T02:20:19.256Z,13.80
2018-07-01T02:22:47.459Z,13.70
2018-07-01T02:25:16.445Z,13.60
2018-07-01T02:27:44.674Z,13.60
2018-07-01T02:30:12.921Z,13.50
2018-07-01T02:32:41.934Z,13.40
2018-07-01T02:35:10.129Z,13.40
2018-07-01T02:37:38.355Z,13.40
2018-07-01T02:40:07.340Z,13.30
2018-07-01T02:42:35.596Z,13.20
2018-07-01T02:45:04.567Z,13.10
2018-07-01T02:47:32.796Z,13.10
2018-07-01T02:50:01.819Z,12.90
2018-07-01T02:52:30.089Z,12.90
2018-07-01T02:54:59.035Z,12.60
2018-07-01T02:57:27.267Z,12.60
2018-07-01T02:59:55.506Z,12.60
2018-07-01T03:02:23.767Z,12.60
2018-07-01T03:04:52.007Z,12.50
2018-07-01T03:07:20.212Z,12.50
2018-07-01T03:09:48.665Z,12.50
2018-07-01T03:12:17.602Z,12.50
2018-07-01T03:14:45.876Z,12.40
2018-07-01T03:17:14.085Z,12.40
2018-07-01T03:19:42.360Z,12.30
2018-07-01T03:22:11.386Z,12.20
2018-07-01T03:24:39.671Z,12.20
2018-07-01T03:27:07.858Z,12.20
2018-07-01T03:29:36.110Z,12.20
2018-07-01T03:32:04.306Z,12.10
2018-07-01T03:34:32.572Z,12.10
2018-07-01T03:37:00.820Z,12.10
2018-07-01T03:39:29.080Z,12.10
2018-07-01T03:41:58.040Z,12.10
2018-07-01T03:44:26.310Z,12.10
2018-07-01T03:46:54.504Z,12.10
2018-07-01T03:49:22.775Z,12.10
2018-07-01T03:51:51.010Z,12.10
2018-07-01T03:54:19.248Z,12.10
2018-07-01T03:56:47.438Z,12.20
2018-07-01T03:59:16.436Z,12.20
2018-07-01T04:01:45.496Z,12.30
2018-07-01T04:04:13.715Z,12.20
2018-07-01T04:06:42.690Z,12.30
2018-07-01T04:09:11.683Z,12.40
2018-07-01T04:11:40.704Z,12.40
2018-07-01T04:14:08.946Z,12.40
2018-07-01T04:16:37.196Z,12.40
2018-07-01T04:19:05.404Z,12.40
2018-07-01T04:21:34.380Z,12.50
2018-07-01T04:24:02.611Z,12.50
2018-07-01T04:26:30.814Z,12.50
2018-07-01T04:28:59.083Z,12.60
2018-07-01T04:31:27.328Z,12.60
2018-07-01T04:33:55.579Z,12.70
2018-07-01T04:36:23.845Z,12.70
2018-07-01T04:38:52.087Z,12.70
2018-07-01T04:41:20.299Z,12.70
2018-07-01T04:43:48.591Z,12.70
2018-07-01T04:46:17.562Z,12.80
2018-07-01T04:48:45.816Z,12.80
2018-07-01T04:51:14.020Z,12.80
2018-07-01T04:53:42.298Z,12.80
2018-07-01T04:56:10.506Z,12.90
2018-07-01T04:58:38.733Z,13.00
2018-07-01T05:01:06.988Z,13.10
2018-07-01T05:03:35.201Z,13.20
2018-07-01T05:06:03.407Z,13.20
2018-07-01T05:08:31.667Z,13.30
2018-07-01T05:11:00.633Z,13.50
2018-07-01T05:13:28.872Z,13.50
2018-07-01T05:15:57.127Z,13.60
2018-07-01T05:18:26.139Z,13.80
2018-07-01T05:20:54.353Z,13.80
2018-07-01T05:23:22.687Z,13.90
2018-07-01T05:25:51.655Z,14.10
2018-07-01T05:28:20.636Z,14.20
2018-07-01T05:30:48.869Z,14.20
2018-07-01T05:33:17.085Z,14.30
2018-07-01T05:35:45.351Z,14.40
2018-07-01T05:38:13.594Z,14.70
2018-07-01T05:40:41.857Z,14.90
2018-07-01T05:43:10.051Z,15.10
2018-07-01T05:45:38.277Z,15.40
2018-07-01T05:48:06.548Z,15.60
2018-07-01T05:50:34.753Z,15.90
2018-07-01T05:53:03.005Z,16.10
2018-07-01T05:55:31.259Z,16.30
2018-07-01T05:57:59.469Z,16.50
2018-07-01T06:00:28.447Z,16.90
2018-07-01T06:02:57.477Z,17.10
2018-07-01T06:05:25.689Z,17.10
2018-07-01T06:07:54.002Z,17.30
2018-07-01T06:10:22.205Z,17.40
2018-07-01T06:12:50.410Z,17.50
2018-07-01T06:15:18.729Z,17.70
2018-07-01T06:17:46.895Z,17.70
2018-07-01T06:20:15.123Z,17.90
2018-07-01T06:22:43.385Z,17.90
2018-07-01T06:25:12.403Z,18.20
2018-07-01T06:27:40.659Z,18.20
2018-07-01T06:30:09.646Z,18.50
2018-07-01T06:32:38.664Z,18.50
2018-07-01T06:35:06.925Z,18.50
2018-07-01T06:37:35.126Z,18.70
2018-07-01T06:40:03.383Z,18.90
2018-07-01T06:42:31.639Z,19.00
2018-07-01T06:45:00.663Z,19.20
2018-07-01T06:47:28.919Z,19.20
2018-07-01T06:49:57.942Z,19.50
2018-07-01T06:52:26.187Z,19.50
2018-07-01T06:54:55.229Z,19.70
2018-07-01T06:57:23.438Z,19.70
2018-07-01T06:59:52.468Z,20.00
2018-07-01T07:02:20.742Z,19.90
2018-07-01T07:04:48.905Z,20.10
2018-07-01T07:07:17.126Z,20.10
2018-07-01T07:09:45.410Z,20.20
2018-07-01T07:12:13.668Z,20.30
2018-07-01T07:14:41.929Z,20.40
2018-07-01T07:17:10.152Z,20.40
2018-07-01T07:19:38.384Z,20.50
2018-07-01T07:22:06.596Z,20.60
2018-07-01T07:24:35.596Z,20.80
2018-07-01T07:27:03.842Z,20.80
2018-07-01T07:29:32.091Z,20.80
2018-07-01T07:32:01.121Z,20.90
2018-07-01T07:34:29.327Z,20.90
2018-07-01T07:36:57.560Z,20.90
2018-07-01T07:39:25.828Z,21.00
2018-07-01T07:41:54.078Z,21.10
2018-07-01T07:44:23.058Z,21.10
2018-07-01T07:46:51.305Z,21.00
2018-07-01T07:49:19.526Z,21.10
2018-07-01T07:51:48.549Z,21.20
2018-07-01T07:54:16.759Z,21.10
2018-07-01T07:56:44.989Z,21.20
2018-07-01T07:59:13.211Z,21.20
2018-07-01T08:01:41.492Z,21.20
2018-07-01T08:04:10.526Z,21.00
2018-07-01T08:06:39.501Z,21.00
2018-07-01T08:09:07.724Z,21.00
2018-07-01T08:11:35.986Z,21.00
2018-07-01T08:14:04.209Z,20.90
2018-07-01T08:16:32.452Z,20.90
2018-07-01T08:19:01.861Z,20.90
2018-07-01T08:21:30.076Z,20.90
2018-07-01T08:23:58.364Z,20.90
2018-07-01T08:26:26.553Z,20.90
2018-07-01T08:28:54.843Z,21.00
2018-07-01T08:31:23.817Z,21.00
2018-07-01T08:33:52.795Z,21.00
2018-07-01T08:36:21.077Z,21.00
2018-07-01T08:38:49.309Z,21.00
2018-07-01T08:41:17.599Z,21.10
2018-07-01T08:43:45.805Z,21.10
2018-07-01T08:46:14.097Z,21.10
2018-07-01T08:48:42.261Z,21.20
2018-07-01T08:51:11.258Z,21.30
2018-07-01T08:53:39.467Z,21.30
2018-07-01T08:56:07.759Z,21.30
2018-07-01T08:58:36.015Z,21.30
2018-07-01T09:01:04.230Z,21.40
2018-07-01T09:03:32.484Z,21.40
2018-07-01T09:06:00.696Z,21.40
2018-07-01T09:08:28.943Z,21.50
2018-07-01T09:10:57.180Z,21.50
2018-07-01T09:13:26.196Z,21.60
2018-07-01T09:15:54.458Z,21.60
2018-07-01T09:18:23.439Z,21.70
2018-07-01T09:20:52.496Z,21.70
2018-07-01T09:23:20.740Z,21.70
2018-07-01T09:25:49.003Z,21.70
2018-07-01T09:28:17.961Z,21.70
2018-07-01T09:30:46.222Z,21.70
2018-07-01T09:33:14.417Z,21.80
2018-07-01T09:35:42.644Z,21.80
2018-07-01T09:38:10.867Z,21.80
2018-07-01T09:40:39.153Z,21.90
2018-07-01T09:43:07.455Z,21.90
2018-07-01T09:45:36.448Z,21.90
2018-07-01T09:48:05.414Z,22.00
2018-07-01T09:50:33.708Z,21.90
2018-07-01T09:53:01.901Z,22.10
2018-07-01T09:55:30.128Z,22.20
2018-07-01T09:57:58.336Z,22.20
2018-07-01T10:00:27.336Z,22.40
2018-07-01T10:02:56.305Z,22.50
2018-07-01T10:05:24.520Z,22.40
2018-07-01T10:07:52.749Z,22.50
2018-07-01T10:10:20.979Z,22.50
2018-07-01T10:12:49.267Z,22.60
2018-07-01T10:15:17.515Z,22.70
2018-07-01T10:17:45.787Z,22.80
2018-07-01T10:20:14.801Z,22.80
2018-07-01T10:22:43.020Z,22.80
2018-07-01T10:25:12.050Z,22.90
2018-07-01T10:27:41.012Z,23.00
2018-07-01T10:30:09.297Z,23.00
2018-07-01T10:32:37.549Z,23.00
2018-07-01T10:35:05.808Z,23.10
2018-07-01T10:37:34.005Z,23.20
2018-07-01T10:40:02.261Z,23.30
2018-07-01T10:42:30.511Z,23.40
2018-07-01T10:44:59.519Z,23.60
2018-07-01T10:47:27.771Z,23.50
2018-07-01T10:49:56.748Z,23.90
2018-07-01T10:52:24.961Z,23.90
2018-07-01T10:54:53.236Z,24.00
2018-07-01T10:57:21.426Z,24.10
2018-07-01T10:59:49.720Z,24.20
2018-07-01T11:02:17.958Z,24.40
2018-07-01T11:04:46.960Z,24.80
2018-07-01T11:07:15.162Z,24.80
2018-07-01T11:09:43.432Z,24.90
2018-07-01T11:12:11.689Z,25.20
2018-07-01T11:14:39.961Z,25.40
2018-07-01T11:17:08.924Z,25.80
2018-07-01T11:19:37.183Z,25.80
2018-07-01T11:22:05.392Z,25.90
2018-07-01T11:24:34.434Z,26.30
2018-07-01T11:27:02.742Z,26.20
2018-07-01T11:29:31.647Z,26.60
2018-07-01T11:31:59.913Z,26.60
2018-07-01T11:34:28.159Z,26.80
2018-07-01T11:36:56.389Z,27.00
2018-07-01T11:39:25.385Z,27.40
2018-07-01T11:41:54.374Z,27.50
2018-07-01T11:44:23.337Z,27.70
2018-07-01T11:46:51.612Z,27.70
2018-07-01T11:49:19.829Z,28.00
2018-07-01T11:51:48.091Z,28.00
2018-07-01T11:54:17.055Z,28.30
2018-07-01T11:56:45.325Z,28.30
2018-07-01T11:59:13.527Z,28.50
2018-07-01T12:01:41.801Z,28.60
2018-07-01T12:04:10.017Z,28.80
2018-07-01T12:06:38.252Z,29.00
2018-07-01T12:09:06.469Z,29.10
2018-07-01T12:11:34.706Z,29.30
2018-07-01T12:14:02.913Z,29.40
2018-07-01T12:16:31.180Z,29.50
2018-07-01T12:19:00.210Z,29.90
2018-07-01T12:21:28.490Z,29.80
2018-07-01T12:23:56.698Z,29.90
2018-07-01T12:26:24.952Z,30.00
2018-07-01T12:28:53.282Z,30.10
2018-07-01T12:31:22.206Z,30.30
2018-07-01T12:33:50.450Z,30.30
2018-07-01T12:36:19.425Z,30.50
2018-07-01T12:38:47.636Z,30.60
2018-07-01T12:41:15.843Z,30.70
2018-07-01T12:43:44.079Z,30.80
2018-07-01T12:46:13.082Z,31.10
2018-07-01T12:48:41.356Z,31.00
2018-07-01T12:51:10.370Z,31.40
2018-07-01T12:53:38.622Z,31.30
2018-07-01T12:56:07.650Z,31.70
2018-07-01T12:58:36.685Z,31.80
2018-07-01T13:01:04.887Z,31.80
2018-07-01T13:03:33.869Z,32.00
2018-07-01T13:06:02.892Z,32.00
2018-07-01T13:08:31.191Z,32.00
2018-07-01T13:10:59.426Z,32.00
2018-07-01T13:13:28.432Z,32.20
2018-07-01T13:15:56.658Z,32.20
2018-07-01T13:18:24.939Z,32.30
2018-07-01T13:20:53.092Z,32.30
2018-07-01T13:23:21.370Z,32.50
2018-07-01T13:25:49.584Z,32.60
2018-07-01T13:28:17.824Z,32.70
2018-07-01T13:30:46.138Z,32.80
2018-07-01T13:33:14.402Z,32.90
2018-07-01T13:35:42.646Z,33.00
2018-07-01T13:38:10.912Z,33.10
2018-07-01T13:40:39.136Z,33.30
2018-07-01T13:43:07.366Z,33.20
2018-07-01T13:45:35.626Z,33.30
2018-07-01T13:48:03.846Z,33.40
2018-07-01T13:50:32.106Z,33.50
2018-07-01T13:53:00.371Z,33.50
2018-07-01T13:55:28.614Z,33.50
2018-07-01T13:57:57.640Z,33.60
2018-07-01T14:00:25.885Z,33.60
2018-07-01T14:02:54.876Z,33.70
2018-07-01T14:05:23.910Z,33.70
2018-07-01T14:07:52.122Z,33.70
2018-07-01T14:10:20.335Z,33.80
2018-07-01T14:12:48.560Z,33.90
2018-07-01T14:15:16.821Z,33.90
2018-07-01T14:17:45.055Z,34.00
2018-07-01T14:20:14.038Z,34.10
2018-07-01T14:22:43.068Z,34.30
2018-07-01T14:25:11.311Z,34.20
2018-07-01T14:27:39.537Z,34.40
2018-07-01T14:30:07.765Z,34.70
2018-07-01T14:32:36.832Z,35.00
2018-07-01T14:35:05.073Z,35.00
2018-07-01T14:37:33.336Z,35.00
2018-07-01T14:40:01.602Z,35.10
2018-07-01T14:42:30.624Z,35.10
2018-07-01T14:44:58.836Z,35.00
2018-07-01T14:47:27.069Z,35.10
2018-07-01T14:49:55.277Z,35.10
2018-07-01T14:52:23.556Z,35.10
2018-07-01T14:54:51.846Z,35.00
2018-07-01T14:57:20.059Z,35.10
2018-07-01T14:59:49.078Z,35.10
2018-07-01T15:02:17.297Z,35.00
2018-07-01T15:04:45.583Z,35.00
2018-07-01T15:07:13.814Z,35.00
2018-07-01T15:09:42.026Z,34.90
2018-07-01T15:12:10.304Z,34.90
2018-07-01T15:14:38.511Z,34.80
2018-07-01T15:17:07.537Z,34.80
2018-07-01T15:19:35.796Z,34.80
2018-07-01T15:22:04.088Z,34.90
2018-07-01T15:24:33.127Z,34.90
2018-07-01T15:27:01.364Z,34.90
2018-07-01T15:29:29.636Z,34.90
2018-07-01T15:31:57.849Z,34.90
2018-07-01T15:34:26.132Z,35.00
2018-07-01T15:36:54.342Z,34.90
2018-07-01T15:39:22.580Z,34.90
2018-07-01T15:41:50.828Z,34.90
2018-07-01T15:44:19.107Z,34.90
2018-07-01T15:46:47.358Z,34.80
2018-07-01T15:49:15.633Z,34.80
2018-07-01T15:51:43.854Z,34.80
2018-07-01T15:54:12.120Z,34.80
2018-07-01T15:56:40.325Z,34.50
2018-07-01T15:59:08.580Z,34.70
2018-07-01T16:01:37.106Z,34.70
2018-07-01T16:04:05.324Z,34.70
2018-07-01T16:06:33.589Z,34.80
2018-07-01T16:09:01.801Z,34.80
2018-07-01T16:11:30.080Z,34.60
2018-07-01T16:13:58.329Z,34.60
2018-07-01T16:16:26.548Z,34.50
2018-07-01T16:18:55.580Z,34.30
2018-07-01T16:21:23.797Z,34.30
2018-07-01T16:23:52.061Z,34.20
2018-07-01T16:26:20.327Z,34.00
2018-07-01T16:28:48.588Z,34.20
2018-07-01T16:31:16.818Z,34.20
2018-07-01T16:33:45.098Z,34.10
2018-07-01T16:36:13.347Z,34.30
2018-07-01T16:38:41.588Z,34.30
2018-07-01T16:41:09.840Z,34.30
2018-07-01T16:43:38.068Z,34.40
2018-07-01T16:46:06.344Z,34.40
2018-07-01T16:48:34.541Z,34.30
2018-07-01T16:51:02.783Z,34.20
2018-07-01T16:53:30.993Z,34.00
2018-07-01T16:55:59.228Z,34.00
2018-07-01T16:58:27.497Z,33.80
2018-07-01T17:00:56.489Z,33.80
2018-07-01T17:03:24.703Z,33.80
2018-07-01T17:05:52.976Z,33.80
2018-07-01T17:08:21.198Z,33.70
2018-07-01T17:10:50.203Z,33.40
2018-07-01T17:13:19.226Z,33.30
2018-07-01T17:15:47.397Z,33.30
2018-07-01T17:18:15.607Z,33.20
2018-07-01T17:20:43.847Z,33.00
2018-07-01T17:23:12.062Z,32.70
2018-07-01T17:25:40.324Z,32.40
2018-07-01T17:28:08.585Z,32.20
2018-07-01T17:30:36.838Z,31.90
2018-07-01T17:33:20.758Z,31.60
2018-07-01T17:35:49.802Z,31.00
2018-07-01T17:38:18.028Z,30.90
2018-07-01T17:40:46.306Z,30.80
2018-07-01T17:43:14.554Z,30.50
2018-07-01T17:45:42.828Z,30.40
2018-07-01T17:48:11.095Z,30.20
2018-07-01T17:50:39.355Z,30.00
2018-07-01T17:53:07.616Z,29.80
2018-07-01T17:55:36.588Z,29.50
2018-07-01T17:58:05.627Z,29.30
2018-07-01T18:00:33.889Z,29.30
2018-07-01T18:03:02.233Z,29.30
2018-07-01T18:05:30.509Z,29.30
2018-07-01T18:07:58.761Z,29.30
2018-07-01T18:10:27.085Z,29.20
2018-07-01T18:12:56.101Z,29.20
2018-07-01T18:15:24.381Z,29.20
2018-07-01T18:17:52.631Z,29.20
2018-07-01T18:20:21.660Z,29.10
2018-07-01T18:23:18.239Z,29.10
2018-07-01T18:25:18.153Z,29.20
2018-07-01T18:27:52.581Z,29.10
2018-07-01T18:30:15.668Z,28.90
2018-07-01T18:32:43.931Z,28.90
2018-07-01T18:35:12.950Z,28.50
2018-07-01T18:37:41.157Z,28.50
2018-07-01T18:40:09.468Z,28.40
2018-07-01T18:42:37.677Z,28.30
2018-07-01T18:45:05.932Z,28.00
2018-07-01T18:47:34.957Z,27.60
2018-07-01T18:50:03.335Z,27.50
2018-07-01T18:52:31.534Z,27.50
2018-07-01T18:54:59.811Z,27.40
2018-07-01T18:57:28.054Z,27.10
2018-07-01T18:59:56.290Z,26.90
2018-07-01T19:02:24.542Z,26.80
2018-07-01T19:04:52.918Z,26.60
2018-07-01T19:07:21.185Z,26.50
2018-07-01T19:09:49.435Z,26.40
2018-07-01T19:12:17.701Z,26.30
2018-07-01T19:14:46.667Z,26.00
2018-07-01T19:17:14.900Z,26.00
2018-07-01T19:19:43.157Z,25.90
2018-07-01T19:22:11.379Z,25.80
2018-07-01T19:24:39.592Z,25.60
2018-07-01T19:27:08.623Z,25.30
2018-07-01T19:29:36.893Z,25.30
2018-07-01T19:32:05.149Z,25.20
2018-07-01T19:34:35.022Z,25.00
2018-07-01T19:37:03.241Z,24.90
2018-07-01T19:39:31.443Z,24.90
2018-07-01T19:41:59.680Z,24.70
2018-07-01T19:44:28.677Z,24.40
2018-07-01T19:46:57.789Z,24.20
2018-07-01T19:49:26.015Z,24.20
2018-07-01T19:51:55.006Z,24.00
2018-07-01T19:54:23.266Z,24.00
2018-07-01T19:56:51.521Z,23.90
2018-07-01T19:59:19.771Z,23.70
2018-07-01T20:01:48.148Z,23.50
2018-07-01T20:04:16.337Z,23.40
2018-07-01T20:06:44.610Z,23.20
2018-07-01T20:09:13.647Z,22.90
2018-07-01T20:11:41.850Z,22.90
2018-07-01T20:14:10.109Z,22.70
2018-07-01T20:16:38.388Z,22.60
2018-07-01T20:19:06.597Z,22.50
2018-07-01T20:21:34.910Z,22.30
2018-07-01T20:24:03.172Z,22.20
2018-07-01T20:26:32.194Z,22.00
2018-07-01T20:29:00.441Z,22.00
2018-07-01T20:31:29.435Z,21.80
2018-07-01T20:33:58.411Z,21.70
2018-07-01T20:36:27.431Z,21.60
2018-07-01T20:38:55.695Z,21.60
2018-07-01T20:41:23.946Z,21.50
2018-07-01T20:43:52.200Z,21.40
2018-07-01T20:46:20.466Z,21.30
2018-07-01T20:48:48.676Z,21.20
2018-07-01T20:51:16.963Z,21.10
2018-07-01T20:53:45.171Z,21.00
2018-07-01T20:56:13.439Z,20.90
2018-07-01T20:58:41.638Z,20.80
2018-07-01T21:01:09.900Z,20.60
2018-07-01T21:03:38.124Z,20.50
2018-07-01T21:06:06.386Z,20.40
2018-07-01T21:08:34.594Z,20.30
2018-07-01T21:11:02.822Z,20.20
2018-07-01T21:13:31.042Z,20.20
2018-07-01T21:15:59.259Z,20.10
2018-07-01T21:18:27.537Z,19.90
2018-07-01T21:20:55.824Z,19.80
2018-07-01T21:23:24.064Z,19.80
2018-07-01T21:25:53.052Z,19.50
2018-07-01T21:28:21.342Z,19.50
2018-07-01T21:30:49.582Z,19.50
2018-07-01T21:33:17.789Z,19.50
2018-07-01T21:35:46.819Z,19.30
2018-07-01T21:38:15.097Z,19.30
2018-07-01T21:40:44.125Z,19.20
2018-07-01T21:43:12.337Z,19.20
2018-07-01T21:45:41.370Z,19.10
2018-07-01T21:48:09.634Z,19.10
2018-07-01T21:50:37.863Z,19.10
2018-07-01T21:53:06.077Z,19.00
2018-07-01T21:55:34.371Z,18.90
2018-07-01T21:58:02.635Z,18.80
2018-07-01T22:00:30.873Z,18.80
2018-07-01T22:02:59.101Z,18.80
2018-07-01T22:05:27.354Z,18.70
2018-07-01T22:07:55.587Z,18.70
2018-07-01T22:10:23.790Z,18.70
2018-07-01T22:12:52.799Z,18.50
2018-07-01T22:15:44.441Z,18.60
2018-07-01T22:18:12.649Z,18.50
2018-07-01T22:20:40.913Z,18.50
2018-07-01T22:23:09.187Z,18.40
2018-07-01T22:25:37.410Z,18.40
2018-07-01T22:28:05.666Z,18.30
2018-07-01T22:30:33.881Z,18.20
2018-07-01T22:33:02.151Z,18.20
2018-07-01T22:35:31.169Z,18.10
2018-07-01T22:37:59.391Z,18.10
2018-07-01T22:40:27.645Z,18.10
2018-07-01T22:42:55.865Z,18.00
2018-07-01T22:45:24.876Z,18.00
2018-07-01T22:47:53.892Z,18.00
2018-07-01T22:50:22.094Z,18.00
2018-07-01T22:52:50.310Z,18.00
2018-07-01T22:55:19.328Z,17.90
2018-07-01T22:57:47.538Z,17.80
2018-07-01T23:00:16.573Z,17.80
2018-07-01T23:02:57.599Z,17.70
2018-07-01T23:05:25.860Z,17.70
2018-07-01T23:07:54.078Z,17.60
2018-07-01T23:10:22.273Z,17.60
2018-07-01T23:12:51.322Z,17.50
2018-07-01T23:15:19.572Z,17.40
2018-07-01T23:17:47.830Z,17.40
2018-07-01T23:20:16.868Z,17.30
2018-07-01T23:22:45.072Z,17.30
2018-07-01T23:25:13.306Z,17.30
2018-07-01T23:27:41.514Z,17.30
2018-07-01T23:30:09.772Z,17.20
2018-07-01T23:32:38.028Z,17.20
2018-07-01T23:35:06.310Z,17.20
2018-07-01T23:37:34.516Z,17.20
2018-07-01T23:40:02.776Z,17.10
2018-07-01T23:42:31.020Z,17.10
2018-07-01T23:45:00.065Z,17.00
2018-07-01T23:47:28.293Z,17.00
2018-07-01T23:49:56.532Z,17.00
2018-07-01T23:52:24.735Z,17.00
2018-07-01T23:54:53.720Z,16.90
2018-07-01T23:57:22.732Z,16.80
2018-07-01T23:59:51.717Z,16.60
